Ms Signal — SFWL — position and weather

sailwx.info

Track history (hours):
 
Tides and Currents Weather Stations Pressure Air Temp Water Temp Dewpoint Dewpoint Depression Visibility Wind Speed Wind Dir Waves Ship Positions

Ms Signal

Last reported at 2017-Jun-22 15:20 UTC. Time now 2017-Jun-22 22:22 UTC.
Position N 59°21' E 018°08'.

Length 16 m.

Type: Diving. MMSI: 265648340.

Date/timePositionNaut miles runAvg speedWind from/ knotsBaromVisibWave heightAir tempDewpointWater temp
2017-Jun-22 15:20N 59°21' E 018°08'2 4.7
2017-Jun-22 15:01N 59°19' E 018°07'0 0.1
2017-Jun-22 14:31N 59°19' E 018°07'2 0.3
2017-Jun-22 08:46N 59°21' E 018°08'0 0.0
2017-Jun-22 08:16N 59°21' E 018°08'0 0.0
2017-Jun-22 07:55N 59°21' E 018°08'0 0.0
2017-Jun-22 07:19N 59°21' E 018°08'0 0.0
2017-Jun-22 06:56N 59°21' E 018°08'1 3.4
2017-Jun-22 06:30N 59°19' E 018°08'1 2.9
2017-Jun-22 06:00N 59°19' E 018°05'0 0.4
2017-Jun-22 05:30N 59°19' E 018°05'2 4.6
2017-Jun-22 05:01N 59°19' E 018°09'2 0.1
2017-Jun-21 12:33N 59°21' E 018°08'0 2.2
2017-Jun-21 12:30N 59°21' E 018°08'2 2.9
2017-Jun-21 11:58N 59°19' E 018°09'1 1.1
2017-Jun-21 11:13N 59°19' E 018°08'0 0.0
2017-Jun-21 10:55N 59°19' E 018°08'0 0.0
2017-Jun-21 10:19N 59°19' E 018°08'0 1.0
2017-Jun-21 10:00N 59°19' E 018°09'2 4.0
2017-Jun-21 09:29N 59°19' E 018°05'0 0.1
2017-Jun-21 07:44N 59°20' E 018°05'0 0.0
2017-Jun-21 07:26N 59°20' E 018°05'0 0.0
2017-Jun-21 06:59N 59°20' E 018°05'0 0.0
2017-Jun-21 06:29N 59°20' E 018°05'2 4.2
2017-Jun-21 06:00N 59°19' E 018°09'1 2.2
2017-Jun-21 05:20N 59°21' E 018°08'0 0.0
2017-Jun-20 11:42N 59°21' E 018°08'1 4.5
2017-Jun-20 11:30N 59°20' E 018°09'2 4.1
2017-Jun-20 10:59N 59°19' E 018°06'1 2.1
2017-Jun-20 10:29N 59°20' E 018°05'0 0.0
2017-Jun-20 09:58N 59°20' E 018°05'0 0.0
2017-Jun-20 09:28N 59°20' E 018°05'0 0.0
2017-Jun-20 08:55N 59°20' E 018°05'0 0.0
2017-Jun-20 08:28N 59°20' E 018°05'0 0.0
2017-Jun-20 07:58N 59°20' E 018°05'0 0.0
2017-Jun-20 07:28N 59°20' E 018°05'0 0.0
2017-Jun-20 06:58N 59°20' E 018°05'0 0.2
2017-Jun-20 06:30N 59°19' E 018°05'2 4.7
2017-Jun-20 06:00N 59°20' E 018°09'1 2.3
2017-Jun-20 05:28N 59°21' E 018°08'0 0.0
2017-Jun-20 05:00N 59°21' E 018°08'0 0.0
2017-Jun-19 13:04N 59°21' E 018°08'0 0.0
2017-Jun-19 12:58N 59°21' E 018°08'0 0.4
2017-Jun-19 12:30N 59°21' E 018°08'2 3.2
2017-Jun-19 12:00N 59°19' E 018°09'1 1.4
2017-Jun-19 11:30N 59°19' E 018°08'3 3.7
2017-Jun-19 10:49N 59°20' E 018°13'1 2.7
2017-Jun-19 10:30N 59°20' E 018°11'2 3.2
2017-Jun-19 09:59N 59°19' E 018°08'0 0.1
2017-Jun-19 09:30N 59°19' E 018°08'0 0.3
2017-Jun-19 09:00N 59°19' E 018°08'0 0.3
2017-Jun-19 08:27N 59°19' E 018°08'0 0.0
2017-Jun-19 08:00N 59°19' E 018°08'0 0.1
2017-Jun-19 07:30N 59°19' E 018°08'2 3.5
2017-Jun-19 07:00N 59°20' E 018°11'0 0.2
2017-Jun-19 06:30N 59°20' E 018°11'2 3.3
2017-Jun-19 06:00N 59°19' E 018°08'1 2.9
2017-Jun-19 05:30N 59°20' E 018°09'1 1.6
2017-Jun-19 05:00N 59°21' E 018°08'0 0.0
2017-Jun-17 17:21N 59°21' E 018°08'3 8.2
2017-Jun-17 17:00N 59°20' E 018°13'3 4.6
2017-Jun-17 16:25N 59°18' E 018°18'4 0.6
2017-Jun-17 09:39N 59°16' E 018°23'4 8.5
2017-Jun-17 09:11N 59°18' E 018°16'1 4.9
2017-Jun-17 08:59N 59°18' E 018°14'3 6.3
2017-Jun-17 08:30N 59°20' E 018°11'2 0.1
2017-Jun-16 02:18N 59°21' E 018°08'1 4.5
2017-Jun-16 01:59N 59°19' E 018°08'1 2.8
2017-Jun-16 01:27N 59°20' E 018°05'0 0.1
2017-Jun-16 01:00N 59°20' E 018°05'0 0.1
2017-Jun-16 00:30N 59°20' E 018°05'0 0.0
2017-Jun-15 23:58N 59°20' E 018°05'0 0.0
2017-Jun-15 23:28N 59°20' E 018°05'0 0.1
2017-Jun-15 22:59N 59°20' E 018°05'0 0.0
2017-Jun-15 22:27N 59°20' E 018°05'0 0.0
2017-Jun-15 21:57N 59°20' E 018°05'0 0.0
2017-Jun-15 21:29N 59°20' E 018°05'0 0.0
2017-Jun-15 20:59N 59°20' E 018°05'0 0.1
2017-Jun-15 20:30N 59°20' E 018°05'0 0.0
2017-Jun-15 19:59N 59°20' E 018°05'0 0.2
2017-Jun-15 19:29N 59°19' E 018°05'0 0.2
2017-Jun-15 18:58N 59°20' E 018°05'0 0.0
2017-Jun-15 18:28N 59°20' E 018°05'0 0.3
2017-Jun-15 17:58N 59°19' E 018°05'0 0.1
2017-Jun-15 17:30N 59°19' E 018°05'0 0.0
2017-Jun-15 16:59N 59°19' E 018°05'0 0.3
2017-Jun-15 16:28N 59°20' E 018°05'0 0.0
2017-Jun-15 15:55N 59°20' E 018°05'0 0.1
2017-Jun-15 15:30N 59°20' E 018°05'0 0.0
2017-Jun-15 14:54N 59°20' E 018°05'0 0.0
2017-Jun-15 13:56N 59°20' E 018°05'0 0.0
2017-Jun-15 13:29N 59°20' E 018°05'0 0.3
2017-Jun-15 12:58N 59°19' E 018°05'0 0.3
2017-Jun-15 12:30N 59°20' E 018°05'0 0.0
2017-Jun-15 12:00N 59°20' E 018°05'0 0.0
2017-Jun-15 11:30N 59°20' E 018°05'0 0.0
2017-Jun-15 11:00N 59°20' E 018°05'0 0.2
2017-Jun-15 10:30N 59°19' E 018°05'0 0.1
2017-Jun-15 09:59N 59°19' E 018°05'2 4.3
2017-Jun-15 09:30N 59°19' E 018°09'1 0.1
2017-Jun-14 23:00N 59°21' E 018°08'2 3.7
2017-Jun-14 22:29N 59°20' E 018°05'0 0.1
2017-Jun-14 21:58N 59°20' E 018°05'0 0.3
2017-Jun-14 21:28N 59°19' E 018°05'0 0.3
2017-Jun-14 21:00N 59°20' E 018°05'0 0.0
2017-Jun-14 20:30N 59°20' E 018°05'0 0.0
2017-Jun-14 19:59N 59°20' E 018°05'0 0.0
2017-Jun-14 19:29N 59°20' E 018°05'0 0.0
2017-Jun-14 18:59N 59°20' E 018°05'0 0.0
2017-Jun-14 18:29N 59°20' E 018°05'0 0.3
2017-Jun-14 18:00N 59°19' E 018°05'0 0.3
2017-Jun-14 17:29N 59°20' E 018°05'0 0.0
2017-Jun-14 16:59N 59°20' E 018°05'0 0.0
2017-Jun-14 16:29N 59°20' E 018°05'0 0.2
2017-Jun-14 15:56N 59°19' E 018°05'0 0.1
2017-Jun-14 15:26N 59°19' E 018°05'0 0.1
2017-Jun-14 14:59N 59°19' E 018°05'2 2.1
2017-Jun-14 14:00N 59°21' E 018°08'0 0.4
2017-Jun-14 13:27N 59°21' E 018°08'0 0.2
2017-Jun-14 12:59N 59°21' E 018°08'2 3.3
2017-Jun-14 12:30N 59°19' E 018°09'2 4.0
2017-Jun-14 11:59N 59°20' E 018°05'0 0.2
2017-Jun-14 11:29N 59°19' E 018°05'0 0.0
2017-Jun-14 11:00N 59°19' E 018°05'1 2.4
2017-Jun-14 10:31N 59°19' E 018°07'2 3.1
2017-Jun-14 10:01N 59°21' E 018°08'0 0.0
2017-Jun-13 12:24N 59°21' E 018°08'2 4.2
2017-Jun-13 12:00N 59°19' E 018°09'3 5.2
2017-Jun-13 11:30N 59°18' E 018°04'1 2.3
2017-Jun-13 10:55N 59°19' E 018°02'0 0.0
2017-Jun-13 10:28N 59°19' E 018°02'0 0.1
2017-Jun-13 10:00N 59°19' E 018°02'0 0.4
2017-Jun-13 09:08N 59°18' E 018°02'0 2.5
2017-Jun-13 09:00N 59°19' E 018°02'0 0.1
2017-Jun-13 08:30N 59°19' E 018°02'0 0.1
2017-Jun-13 07:59N 59°19' E 018°02'0 0.1
2017-Jun-13 07:30N 59°19' E 018°02'2 3.3
2017-Jun-13 07:01N 59°18' E 018°05'1 2.5
2017-Jun-13 06:29N 59°20' E 018°05'1 3.0
2017-Jun-13 06:00N 59°19' E 018°08'1 2.9
2017-Jun-13 05:30N 59°21' E 018°09'0 1.0
2017-Jun-13 05:00N 59°21' E 018°08'  
Track history (hours):
 
Tides and Currents Weather Stations Pressure Air Temp Water Temp Dewpoint Dewpoint Depression Visibility Wind Speed Wind Dir Waves Ship Positions

Ms Signal

Last reported at 2017-Jun-22 15:20 UTC. Time now 2017-Jun-22 22:22 UTC.
Position N 59°21' E 018°08'.

Length 16 m.

Type: Diving. MMSI: 265648340.

Date/timePositionNaut miles runAvg speedWind from/ knotsBaromVisibWave heightAir tempDewpointWater temp
2017-Jun-22 15:20N 59°21' E 018°08'2 4.7
2017-Jun-22 15:01N 59°19' E 018°07'0 0.1
2017-Jun-22 14:31N 59°19' E 018°07'2 0.3
2017-Jun-22 08:46N 59°21' E 018°08'0 0.0
2017-Jun-22 08:16N 59°21' E 018°08'0 0.0
2017-Jun-22 07:55N 59°21' E 018°08'0 0.0
2017-Jun-22 07:19N 59°21' E 018°08'0 0.0
2017-Jun-22 06:56N 59°21' E 018°08'1 3.4
2017-Jun-22 06:30N 59°19' E 018°08'1 2.9
2017-Jun-22 06:00N 59°19' E 018°05'0 0.4
2017-Jun-22 05:30N 59°19' E 018°05'2 4.6
2017-Jun-22 05:01N 59°19' E 018°09'2 0.1
2017-Jun-21 12:33N 59°21' E 018°08'0 2.2
2017-Jun-21 12:30N 59°21' E 018°08'2 2.9
2017-Jun-21 11:58N 59°19' E 018°09'1 1.1
2017-Jun-21 11:13N 59°19' E 018°08'0 0.0
2017-Jun-21 10:55N 59°19' E 018°08'0 0.0
2017-Jun-21 10:19N 59°19' E 018°08'0 1.0
2017-Jun-21 10:00N 59°19' E 018°09'2 4.0
2017-Jun-21 09:29N 59°19' E 018°05'0 0.1
2017-Jun-21 07:44N 59°20' E 018°05'0 0.0
2017-Jun-21 07:26N 59°20' E 018°05'0 0.0
2017-Jun-21 06:59N 59°20' E 018°05'0 0.0
2017-Jun-21 06:29N 59°20' E 018°05'2 4.2
2017-Jun-21 06:00N 59°19' E 018°09'1 2.2
2017-Jun-21 05:20N 59°21' E 018°08'0 0.0
2017-Jun-20 11:42N 59°21' E 018°08'1 4.5
2017-Jun-20 11:30N 59°20' E 018°09'2 4.1
2017-Jun-20 10:59N 59°19' E 018°06'1 2.1
2017-Jun-20 10:29N 59°20' E 018°05'0 0.0
2017-Jun-20 09:58N 59°20' E 018°05'0 0.0
2017-Jun-20 09:28N 59°20' E 018°05'0 0.0
2017-Jun-20 08:55N 59°20' E 018°05'0 0.0
2017-Jun-20 08:28N 59°20' E 018°05'0 0.0
2017-Jun-20 07:58N 59°20' E 018°05'0 0.0
2017-Jun-20 07:28N 59°20' E 018°05'0 0.0
2017-Jun-20 06:58N 59°20' E 018°05'0 0.2
2017-Jun-20 06:30N 59°19' E 018°05'2 4.7
2017-Jun-20 06:00N 59°20' E 018°09'1 2.3
2017-Jun-20 05:28N 59°21' E 018°08'0 0.0
2017-Jun-20 05:00N 59°21' E 018°08'0 0.0
2017-Jun-19 13:04N 59°21' E 018°08'0 0.0
2017-Jun-19 12:58N 59°21' E 018°08'0 0.4
2017-Jun-19 12:30N 59°21' E 018°08'2 3.2
2017-Jun-19 12:00N 59°19' E 018°09'1 1.4
2017-Jun-19 11:30N 59°19' E 018°08'3 3.7
2017-Jun-19 10:49N 59°20' E 018°13'1 2.7
2017-Jun-19 10:30N 59°20' E 018°11'2 3.2
2017-Jun-19 09:59N 59°19' E 018°08'0 0.1
2017-Jun-19 09:30N 59°19' E 018°08'0 0.3
2017-Jun-19 09:00N 59°19' E 018°08'0 0.3
2017-Jun-19 08:27N 59°19' E 018°08'0 0.0
2017-Jun-19 08:00N 59°19' E 018°08'0 0.1
2017-Jun-19 07:30N 59°19' E 018°08'2 3.5
2017-Jun-19 07:00N 59°20' E 018°11'0 0.2
2017-Jun-19 06:30N 59°20' E 018°11'2 3.3
2017-Jun-19 06:00N 59°19' E 018°08'1 2.9
2017-Jun-19 05:30N 59°20' E 018°09'1 1.6
2017-Jun-19 05:00N 59°21' E 018°08'0 0.0
2017-Jun-17 17:21N 59°21' E 018°08'3 8.2
2017-Jun-17 17:00N 59°20' E 018°13'3 4.6
2017-Jun-17 16:25N 59°18' E 018°18'4 0.6
2017-Jun-17 09:39N 59°16' E 018°23'4 8.5
2017-Jun-17 09:11N 59°18' E 018°16'1 4.9
2017-Jun-17 08:59N 59°18' E 018°14'3 6.3
2017-Jun-17 08:30N 59°20' E 018°11'2 0.1
2017-Jun-16 02:18N 59°21' E 018°08'1 4.5
2017-Jun-16 01:59N 59°19' E 018°08'1 2.8
2017-Jun-16 01:27N 59°20' E 018°05'0 0.1
2017-Jun-16 01:00N 59°20' E 018°05'0 0.1
2017-Jun-16 00:30N 59°20' E 018°05'0 0.0
2017-Jun-15 23:58N 59°20' E 018°05'0 0.0
2017-Jun-15 23:28N 59°20' E 018°05'0 0.1
2017-Jun-15 22:59N 59°20' E 018°05'0 0.0
2017-Jun-15 22:27N 59°20' E 018°05'0 0.0
2017-Jun-15 21:57N 59°20' E 018°05'0 0.0
2017-Jun-15 21:29N 59°20' E 018°05'0 0.0
2017-Jun-15 20:59N 59°20' E 018°05'0 0.1
2017-Jun-15 20:30N 59°20' E 018°05'0 0.0
2017-Jun-15 19:59N 59°20' E 018°05'0 0.2
2017-Jun-15 19:29N 59°19' E 018°05'0 0.2
2017-Jun-15 18:58N 59°20' E 018°05'0 0.0
2017-Jun-15 18:28N 59°20' E 018°05'0 0.3
2017-Jun-15 17:58N 59°19' E 018°05'0 0.1
2017-Jun-15 17:30N 59°19' E 018°05'0 0.0
2017-Jun-15 16:59N 59°19' E 018°05'0 0.3
2017-Jun-15 16:28N 59°20' E 018°05'0 0.0
2017-Jun-15 15:55N 59°20' E 018°05'0 0.1
2017-Jun-15 15:30N 59°20' E 018°05'0 0.0
2017-Jun-15 14:54N 59°20' E 018°05'0 0.0
2017-Jun-15 13:56N 59°20' E 018°05'0 0.0
2017-Jun-15 13:29N 59°20' E 018°05'0 0.3
2017-Jun-15 12:58N 59°19' E 018°05'0 0.3
2017-Jun-15 12:30N 59°20' E 018°05'0 0.0
2017-Jun-15 12:00N 59°20' E 018°05'0 0.0
2017-Jun-15 11:30N 59°20' E 018°05'0 0.0
2017-Jun-15 11:00N 59°20' E 018°05'0 0.2
2017-Jun-15 10:30N 59°19' E 018°05'0 0.1
2017-Jun-15 09:59N 59°19' E 018°05'2 4.3
2017-Jun-15 09:30N 59°19' E 018°09'1 0.1
2017-Jun-14 23:00N 59°21' E 018°08'2 3.7
2017-Jun-14 22:29N 59°20' E 018°05'0 0.1
2017-Jun-14 21:58N 59°20' E 018°05'0 0.3
2017-Jun-14 21:28N 59°19' E 018°05'0 0.3
2017-Jun-14 21:00N 59°20' E 018°05'0 0.0
2017-Jun-14 20:30N 59°20' E 018°05'0 0.0
2017-Jun-14 19:59N 59°20' E 018°05'0 0.0
2017-Jun-14 19:29N 59°20' E 018°05'0 0.0
2017-Jun-14 18:59N 59°20' E 018°05'0 0.0
2017-Jun-14 18:29N 59°20' E 018°05'0 0.3
2017-Jun-14 18:00N 59°19' E 018°05'0 0.3
2017-Jun-14 17:29N 59°20' E 018°05'0 0.0
2017-Jun-14 16:59N 59°20' E 018°05'0 0.0
2017-Jun-14 16:29N 59°20' E 018°05'0 0.2
2017-Jun-14 15:56N 59°19' E 018°05'0 0.1
2017-Jun-14 15:26N 59°19' E 018°05'0 0.1
2017-Jun-14 14:59N 59°19' E 018°05'2 2.1
2017-Jun-14 14:00N 59°21' E 018°08'0 0.4
2017-Jun-14 13:27N 59°21' E 018°08'0 0.2
2017-Jun-14 12:59N 59°21' E 018°08'2 3.3
2017-Jun-14 12:30N 59°19' E 018°09'2 4.0
2017-Jun-14 11:59N 59°20' E 018°05'0 0.2
2017-Jun-14 11:29N 59°19' E 018°05'0 0.0
2017-Jun-14 11:00N 59°19' E 018°05'1 2.4
2017-Jun-14 10:31N 59°19' E 018°07'2 3.1
2017-Jun-14 10:01N 59°21' E 018°08'0 0.0
2017-Jun-13 12:24N 59°21' E 018°08'2 4.2
2017-Jun-13 12:00N 59°19' E 018°09'3 5.2
2017-Jun-13 11:30N 59°18' E 018°04'1 2.3
2017-Jun-13 10:55N 59°19' E 018°02'0 0.0
2017-Jun-13 10:28N 59°19' E 018°02'0 0.1
2017-Jun-13 10:00N 59°19' E 018°02'0 0.4
2017-Jun-13 09:08N 59°18' E 018°02'0 2.5
2017-Jun-13 09:00N 59°19' E 018°02'0 0.1
2017-Jun-13 08:30N 59°19' E 018°02'0 0.1
2017-Jun-13 07:59N 59°19' E 018°02'0 0.1
2017-Jun-13 07:30N 59°19' E 018°02'2 3.3
2017-Jun-13 07:01N 59°18' E 018°05'1 2.5
2017-Jun-13 06:29N 59°20' E 018°05'1 3.0
2017-Jun-13 06:00N 59°19' E 018°08'1 2.9
2017-Jun-13 05:30N 59°21' E 018°09'0 1.0
2017-Jun-13 05:00N 59°21' E 018°08'  

Dump ship's entire track history